Time;durP1;ratioP1;P1;durP2;ratioP2;P2;SDS_P1;SDS_P2;PMS_P1;PMS_P2;Temp;Humidity;BMP_temperature;BMP_pressure;BME280_temperature;BME280_humidity;BME280_pressure;Samples;Min_cycle;Max_cycle;Signal;HPM_P1;HPM_P2
2023/04/08 00:01:10;;;;;;;8.63;5.95;;;4.00;99.90;;;;;;4767673;30;20048;-85
2023/04/08 00:03:36;;;;;;;7.03;6.13;;;4.00;99.90;;;;;;4737039;30;20035;-83
2023/04/08 00:06:02;;;;;;;8.23;6.60;;;3.90;99.90;;;;;;4765263;30;20040;-83
2023/04/08 00:08:31;;;;;;;7.03;6.32;;;3.80;99.90;;;;;;4739705;30;20491;-84
2023/04/08 00:10:57;;;;;;;6.90;6.20;;;3.70;99.90;;;;;;4736354;30;20043;-84
2023/04/08 00:13:22;;;;;;;10.18;7.32;;;3.80;99.90;;;;;;4739025;30;20040;-84
2023/04/08 00:15:48;;;;;;;7.88;5.65;;;3.70;99.90;;;;;;4752914;30;20047;-83
2023/04/08 00:18:14;;;;;;;7.25;5.70;;;3.80;99.90;;;;;;4769224;30;20048;-84
2023/04/08 00:20:41;;;;;;;7.07;6.00;;;3.70;99.90;;;;;;4755618;30;20047;-83
2023/04/08 00:23:07;;;;;;;9.73;6.25;;;3.70;99.90;;;;;;4768728;30;20043;-84
2023/04/08 00:25:34;;;;;;;11.88;6.22;;;3.70;99.90;;;;;;4772406;30;20078;-83
2023/04/08 00:28:00;;;;;;;6.68;5.93;;;3.60;99.90;;;;;;4753601;30;20090;-83
2023/04/08 00:30:29;;;;;;;8.32;6.50;;;3.60;99.90;;;;;;4770249;30;20217;-84
2023/04/08 00:32:55;;;;;;;7.25;5.32;;;3.80;99.90;;;;;;4764872;30;20090;-83
2023/04/08 00:35:20;;;;;;;7.60;6.05;;;3.60;99.90;;;;;;4768668;30;20538;-83
2023/04/08 00:37:46;;;;;;;7.70;6.13;;;3.60;99.90;;;;;;4750473;30;20047;-84
2023/04/08 00:40:12;;;;;;;6.97;5.55;;;3.50;99.90;;;;;;4765629;30;20955;-83
2023/04/08 00:42:38;;;;;;;7.38;5.32;;;3.40;99.90;;;;;;4752694;30;20038;-84
2023/04/08 00:45:04;;;;;;;8.07;5.88;;;3.40;99.90;;;;;;4750842;30;20861;-84
2023/04/08 00:47:30;;;;;;;11.30;6.10;;;3.30;99.90;;;;;;4751754;30;20096;-83
2023/04/08 00:49:56;;;;;;;7.50;5.60;;;3.30;99.90;;;;;;4751252;30;20043;-84
2023/04/08 00:52:21;;;;;;;9.13;6.43;;;3.40;99.90;;;;;;4752582;30;20032;-86
2023/04/08 00:54:47;;;;;;;10.68;5.93;;;3.30;99.90;;;;;;4751561;30;20059;-83
2023/04/08 00:57:13;;;;;;;10.65;5.97;;;3.30;99.90;;;;;;4738468;30;20531;-83
2023/04/08 01:03:40;;;;;;;6.13;5.57;;;3.30;99.90;;;;;;4765380;30;20039;-83
2023/04/08 01:06:42;;;;;;;7.93;6.15;;;3.30;99.90;;;;;;4754384;30;20047;-83
2023/04/08 01:09:11;;;;;;;6.65;5.95;;;3.20;99.90;;;;;;4754013;30;20126;-84
2023/04/08 01:11:43;;;;;;;8.50;5.95;;;3.20;99.90;;;;;;4752479;30;20044;-84
2023/04/08 01:14:30;;;;;;;8.07;6.30;;;3.40;99.90;;;;;;4755727;30;20047;-83
2023/04/08 01:16:58;;;;;;;11.35;6.63;;;3.20;99.90;;;;;;4757836;30;20047;-83
2023/04/08 01:19:33;;;;;;;8.90;6.53;;;3.10;99.90;;;;;;4772378;30;20048;-84
2023/04/08 01:22:14;;;;;;;7.43;6.15;;;3.20;99.90;;;;;;4757877;30;20038;-84
2023/04/08 01:24:43;;;;;;;9.88;7.32;;;3.10;99.90;;;;;;4742998;30;20039;-83
2023/04/08 01:27:10;;;;;;;7.85;7.05;;;3.10;99.90;;;;;;4756899;30;20701;-83
2023/04/08 01:29:37;;;;;;;9.63;7.25;;;3.10;99.90;;;;;;4756098;30;20496;-84
2023/04/08 01:32:05;;;;;;;9.90;7.85;;;3.10;99.90;;;;;;4772377;30;20051;-84
2023/04/08 01:34:32;;;;;;;7.80;7.00;;;3.10;99.90;;;;;;4771421;30;20096;-83
2023/04/08 01:36:59;;;;;;;10.98;7.72;;;3.10;99.90;;;;;;4753635;30;20663;-83
2023/04/08 01:39:26;;;;;;;9.32;8.15;;;3.00;99.90;;;;;;4753553;30;20044;-83
2023/04/08 01:41:53;;;;;;;8.75;7.72;;;3.10;99.90;;;;;;4769925;30;20415;-83
2023/04/08 01:44:20;;;;;;;11.70;8.65;;;3.90;99.90;;;;;;4755517;30;20540;-85
2023/04/08 01:46:49;;;;;;;8.98;8.07;;;3.00;99.90;;;;;;4754199;30;20047;-84
2023/04/08 01:49:16;;;;;;;9.52;8.55;;;2.90;99.90;;;;;;4751779;30;20796;-83
2023/04/08 01:51:46;;;;;;;14.48;9.48;;;2.90;99.90;;;;;;4771407;30;20058;-84
2023/04/08 01:54:12;;;;;;;9.48;8.48;;;3.00;99.90;;;;;;4769225;30;20130;-84
2023/04/08 01:56:41;;;;;;;11.23;9.02;;;2.90;99.90;;;;;;4766959;30;20114;-84
2023/04/08 01:59:11;;;;;;;10.13;8.98;;;2.90;99.90;;;;;;4759710;30;20048;-83
2023/04/08 02:01:38;;;;;;;10.82;8.70;;;3.00;99.90;;;;;;4770863;30;20067;-84
2023/04/08 02:04:03;;;;;;;12.60;9.68;;;2.90;99.90;;;;;;4768164;30;20776;-83
2023/04/08 02:06:30;;;;;;;11.77;9.60;;;2.80;99.90;;;;;;4768462;30;20136;-83
2023/04/08 02:08:56;;;;;;;10.50;9.38;;;2.80;99.90;;;;;;4755106;30;20054;-84
2023/04/08 02:11:23;;;;;;;12.27;10.25;;;3.10;99.90;;;;;;4770229;30;20046;-85
2023/04/08 02:13:49;;;;;;;11.45;10.25;;;2.80;99.90;;;;;;4740996;30;20398;-84
2023/04/08 02:16:29;;;;;;;12.77;9.48;;;2.80;99.90;;;;;;4769627;30;20039;-84
2023/04/08 02:19:05;;;;;;;12.55;10.10;;;2.80;99.90;;;;;;4754574;30;20047;-84
2023/04/08 02:21:43;;;;;;;13.13;10.43;;;2.80;99.90;;;;;;4751750;30;20098;-85
2023/04/08 02:24:12;;;;;;;14.38;11.00;;;2.80;99.90;;;;;;4754191;30;20048;-85
2023/04/08 02:26:38;;;;;;;12.10;9.88;;;2.80;99.90;;;;;;4739635;30;20046;-84
2023/04/08 02:29:05;;;;;;;12.68;11.00;;;2.80;99.90;;;;;;4738819;30;20047;-84
2023/04/08 02:31:32;;;;;;;14.32;11.82;;;2.70;99.90;;;;;;4753141;30;20043;-84
2023/04/08 02:33:59;;;;;;;15.10;11.85;;;2.60;99.90;;;;;;4751037;30;20047;-84
2023/04/08 02:36:25;;;;;;;14.25;12.75;;;2.60;99.90;;;;;;4743438;30;20079;-84
2023/04/08 02:38:51;;;;;;;13.98;11.77;;;2.60;99.90;;;;;;4755179;30;20544;-84
2023/04/08 02:41:16;;;;;;;14.85;12.88;;;2.70;99.90;;;;;;4750817;30;20055;-84
2023/04/08 02:43:42;;;;;;;18.02;13.60;;;2.60;99.90;;;;;;4769388;30;20479;-83
2023/04/08 02:46:10;;;;;;;17.58;13.95;;;2.60;99.90;;;;;;4756158;30;20044;-83
2023/04/08 02:48:36;;;;;;;18.23;14.48;;;2.60;99.90;;;;;;4756102;30;20051;-86
2023/04/08 02:51:01;;;;;;;17.50;13.70;;;2.60;99.90;;;;;;4755458;30;20039;-83
2023/04/08 02:53:27;;;;;;;16.65;14.25;;;2.50;99.90;;;;;;4771271;30;20178;-83
2023/04/08 02:55:52;;;;;;;16.15;13.98;;;2.50;99.90;;;;;;4757592;30;20044;-85
2023/04/08 02:58:19;;;;;;;20.25;14.50;;;2.50;99.90;;;;;;4754255;30;21564;-84
2023/04/08 03:00:48;;;;;;;21.55;15.63;;;2.40;99.90;;;;;;4768453;30;20105;-84
2023/04/08 03:03:14;;;;;;;16.73;14.10;;;2.40;99.90;;;;;;4754725;30;20504;-85
2023/04/08 03:10:02;;;;;;;18.98;15.35;;;2.40;99.90;;;;;;4761659;30;20108;-84
2023/04/08 03:12:34;;;;;;;19.23;15.45;;;2.30;99.90;;;;;;4767064;30;20206;-84
2023/04/08 03:15:02;;;;;;;18.80;14.48;;;2.40;99.90;;;;;;4756729;30;20056;-84
2023/04/08 03:17:33;;;;;;;21.27;16.45;;;2.40;99.90;;;;;;4769069;30;20066;-84
2023/04/08 03:20:03;;;;;;;19.42;15.07;;;2.20;99.90;;;;;;4765297;30;20453;-85
2023/04/08 03:22:29;;;;;;;20.05;15.60;;;2.20;99.90;;;;;;4757846;30;20122;-85
2023/04/08 03:24:56;;;;;;;19.65;16.25;;;2.20;99.90;;;;;;4752763;30;20122;-83
2023/04/08 03:27:23;;;;;;;19.65;16.88;;;2.20;99.90;;;;;;4753499;30;20105;-84
2023/04/08 03:29:53;;;;;;;20.13;16.67;;;2.20;99.90;;;;;;4773594;30;20047;-84
2023/04/08 03:32:20;;;;;;;23.13;17.58;;;2.30;99.90;;;;;;4751191;30;20039;-83
2023/04/08 03:34:52;;;;;;;19.88;17.05;;;2.20;99.90;;;;;;4756706;30;20051;-84
2023/04/08 03:37:18;;;;;;;23.17;17.88;;;2.20;99.90;;;;;;4738600;30;20419;-84
2023/04/08 03:39:45;;;;;;;23.67;17.50;;;2.20;99.90;;;;;;4736577;30;20102;-84
2023/04/08 03:42:12;;;;;;;19.15;16.23;;;2.20;99.90;;;;;;4753795;30;20075;-84
2023/04/08 03:44:39;;;;;;;20.85;17.40;;;2.10;99.90;;;;;;4738500;30;20039;-84
2023/04/08 03:47:25;;;;;;;23.58;18.63;;;2.10;99.90;;;;;;4744749;30;20047;-84
2023/04/08 03:49:53;;;;;;;24.20;19.85;;;2.10;99.90;;;;;;4754200;30;20131;-84
2023/04/08 03:52:20;;;;;;;25.70;20.45;;;2.20;99.90;;;;;;4753767;30;20043;-84
2023/04/08 03:54:49;;;;;;;26.38;19.95;;;2.00;99.90;;;;;;4756351;30;20056;-85
2023/04/08 03:57:15;;;;;;;25.95;20.35;;;2.30;99.90;;;;;;4736352;30;20499;-84
2023/04/08 03:59:40;;;;;;;25.13;20.27;;;2.20;99.90;;;;;;4765310;30;20047;-85
2023/04/08 04:02:08;;;;;;;24.35;19.88;;;2.30;99.90;;;;;;4767999;30;20040;-84
2023/04/08 04:04:37;;;;;;;25.70;19.80;;;2.20;99.90;;;;;;4737339;30;20083;-83
2023/04/08 04:07:12;;;;;;;25.30;20.45;;;2.30;99.90;;;;;;4768080;30;20176;-85
2023/04/08 04:09:39;;;;;;;24.92;18.90;;;2.20;99.90;;;;;;4752111;30;20079;-83
2023/04/08 04:12:05;;;;;;;26.25;20.33;;;2.20;99.90;;;;;;4753980;30;20090;-84
2023/04/08 04:14:31;;;;;;;26.17;20.48;;;2.10;99.90;;;;;;4753974;30;20164;-84
2023/04/08 04:16:59;;;;;;;25.73;19.45;;;2.20;99.90;;;;;;4735848;30;20040;-85
2023/04/08 04:19:30;;;;;;;25.83;20.27;;;2.10;99.90;;;;;;4768189;30;20083;-84
2023/04/08 04:21:56;;;;;;;28.85;21.00;;;2.00;99.90;;;;;;4754578;30;20036;-84
2023/04/08 04:24:23;;;;;;;24.50;18.52;;;2.00;99.90;;;;;;4752576;30;20551;-85
2023/04/08 04:27:00;;;;;;;27.15;20.73;;;2.10;99.90;;;;;;4750975;30;20063;-83
2023/04/08 04:29:30;;;;;;;32.38;21.27;;;2.10;99.90;;;;;;4755026;30;20055;-83
2023/04/08 04:31:57;;;;;;;28.70;22.60;;;2.10;99.90;;;;;;4764562;30;20107;-84
2023/04/08 04:34:24;;;;;;;29.15;21.75;;;2.10;99.90;;;;;;4754483;30;20139;-84
2023/04/08 04:44:18;;;;;;;28.63;20.50;;;2.10;99.90;;;;;;4764309;30;20726;-84
2023/04/08 04:46:45;;;;;;;28.30;22.02;;;2.30;99.90;;;;;;4763723;30;20061;-84
2023/04/08 04:49:11;;;;;;;28.67;20.50;;;2.00;99.90;;;;;;4737606;30;20054;-85
2023/04/08 04:51:37;;;;;;;31.63;22.25;;;2.50;99.90;;;;;;4754829;30;20052;-84
2023/04/08 04:54:04;;;;;;;27.33;21.05;;;2.60;99.90;;;;;;4754142;30;20043;-84
2023/04/08 04:56:32;;;;;;;27.17;21.15;;;2.30;99.90;;;;;;4753278;30;20055;-84
2023/04/08 04:59:00;;;;;;;27.42;21.02;;;2.00;99.90;;;;;;4754782;30;20051;-85
2023/04/08 05:01:27;;;;;;;26.17;20.73;;;2.10;99.90;;;;;;4755226;30;20709;-84
2023/04/08 05:03:55;;;;;;;27.25;21.27;;;2.20;99.90;;;;;;4770197;30;20039;-85
2023/04/08 05:06:26;;;;;;;28.90;22.52;;;2.50;99.90;;;;;;4755565;30;20084;-84
2023/04/08 05:08:52;;;;;;;26.27;19.75;;;2.20;99.90;;;;;;4739274;30;20131;-84
2023/04/08 05:11:18;;;;;;;24.80;19.25;;;2.20;99.90;;;;;;4755596;30;20135;-84
2023/04/08 05:13:44;;;;;;;26.70;20.67;;;2.30;99.90;;;;;;4754641;30;20205;-83
2023/04/08 05:16:10;;;;;;;23.10;20.27;;;2.30;99.90;;;;;;4760597;30;20108;-84
2023/04/08 05:18:36;;;;;;;25.65;21.25;;;2.40;99.90;;;;;;4753645;30;20096;-84
2023/04/08 05:21:02;;;;;;;27.95;21.52;;;2.40;99.90;;;;;;4768157;30;20040;-84
2023/04/08 05:23:40;;;;;;;;;;;2.50;99.90;;;;;;4769505;30;20492;-85
2023/04/08 05:26:07;;;;;;;29.10;20.25;;;2.40;99.90;;;;;;4748684;30;20565;-84
2023/04/08 05:32:18;;;;;;;25.05;21.10;;;2.60;99.90;;;;;;4751885;30;20048;-84
2023/04/08 05:35:22;;;;;;;26.55;19.55;;;2.60;99.90;;;;;;4742184;30;20099;-84
2023/04/08 05:42:26;;;;;;;28.38;21.73;;;2.80;99.90;;;;;;4767427;30;20042;-84
2023/04/08 05:45:31;;;;;;;27.30;22.17;;;3.00;99.90;;;;;;4756084;30;20118;-85
2023/04/08 05:47:57;;;;;;;27.10;22.70;;;3.20;99.90;;;;;;4754667;30;20036;-83
2023/04/08 05:50:23;;;;;;;24.02;19.98;;;3.50;99.90;;;;;;4750522;30;20051;-83
2023/04/08 05:53:00;;;;;;;20.58;18.58;;;4.10;99.90;;;;;;4755326;30;20078;-84
2023/04/08 05:59:28;;;;;;;17.40;15.70;;;6.10;99.90;;;;;;4746710;30;20146;-85
2023/04/08 06:01:58;;;;;;;21.35;14.50;;;7.40;99.90;;;;;;4758780;30;20125;-84
2023/04/08 06:04:28;;;;;;;15.07;13.15;;;7.70;99.90;;;;;;4773579;30;20089;-85
2023/04/08 06:06:56;;;;;;;15.40;13.93;;;7.80;99.90;;;;;;4767646;30;20052;-83
2023/04/08 06:09:22;;;;;;;15.32;13.82;;;7.60;99.90;;;;;;4752941;30;20047;-82
2023/04/08 06:12:07;;;;;;;16.17;14.55;;;7.20;99.90;;;;;;4753999;30;20105;-85
2023/04/08 06:14:33;;;;;;;18.55;16.65;;;6.80;99.90;;;;;;4754323;30;20130;-84
2023/04/08 06:16:59;;;;;;;18.33;16.48;;;6.30;99.90;;;;;;4737190;30;20374;-84
2023/04/08 06:19:24;;;;;;;17.08;15.43;;;6.00;99.90;;;;;;4756418;30;20519;-84
2023/04/08 06:21:50;;;;;;;18.05;15.85;;;6.60;99.90;;;;;;4767610;30;20071;-84
2023/04/08 06:24:16;;;;;;;15.68;14.10;;;6.40;99.90;;;;;;4759306;30;20043;-84
2023/04/08 06:26:42;;;;;;;16.48;14.90;;;6.90;99.90;;;;;;4760154;30;20051;-84
2023/04/08 06:29:07;;;;;;;17.40;15.35;;;7.70;99.90;;;;;;4745058;30;20097;-82
2023/04/08 06:31:33;;;;;;;16.73;15.05;;;7.50;99.90;;;;;;4751799;30;20066;-82
2023/04/08 06:34:12;;;;;;;15.57;14.07;;;7.20;99.90;;;;;;4750815;30;20036;-85
2023/04/08 06:37:06;;;;;;;18.50;16.63;;;6.80;99.90;;;;;;4767837;30;20062;-84
2023/04/08 06:39:56;;;;;;;18.77;16.75;;;6.50;99.90;;;;;;4766195;30;20052;-83
2023/04/08 06:42:54;;;;;;;20.23;17.45;;;6.20;99.90;;;;;;4753087;30;20052;-86
2023/04/08 06:46:10;;;;;;;19.95;17.92;;;6.00;99.90;;;;;;4751118;30;20055;-84
2023/04/08 06:48:36;;;;;;;20.13;17.58;;;5.90;99.90;;;;;;4762565;30;21135;-82
2023/04/08 06:59:23;;;;;;;22.05;19.35;;;5.80;99.90;;;;;;4750320;30;20159;-84
2023/04/08 07:03:27;;;;;;;23.95;19.85;;;5.90;99.90;;;;;;4755317;30;20095;-83
2023/04/08 07:10:09;;;;;;;22.50;20.08;;;6.10;99.90;;;;;;4675471;30;20061;-84
2023/04/08 07:12:40;;;;;;;21.50;18.60;;;6.20;99.90;;;;;;4696614;30;20088;-84
2023/04/08 07:23:43;;;;;;;20.13;18.13;;;7.50;99.90;;;;;;4699660;30;20064;-84
2023/04/08 07:34:09;;;;;;;20.17;17.75;;;8.80;99.90;;;;;;4714621;30;20048;-84
2023/04/08 07:36:35;;;;;;;17.83;16.23;;;9.90;99.90;;;;;;4700436;30;20045;-84
2023/04/08 07:39:01;;;;;;;19.23;17.30;;;9.00;99.90;;;;;;4718497;30;20075;-84
2023/04/08 07:41:27;;;;;;;19.25;17.13;;;8.90;99.90;;;;;;4734873;30;20415;-84
2023/04/08 07:43:53;;;;;;;19.13;17.20;;;8.90;99.90;;;;;;4742748;30;20044;-84
2023/04/08 07:46:19;;;;;;;18.30;16.45;;;8.80;99.90;;;;;;4756263;30;20131;-84
2023/04/08 07:48:46;;;;;;;17.60;15.75;;;8.80;99.90;;;;;;4757867;30;20071;-84
2023/04/08 07:51:12;;;;;;;18.00;16.20;;;8.80;99.90;;;;;;4770273;30;20054;-83
2023/04/08 07:53:39;;;;;;;17.83;16.13;;;8.90;99.90;;;;;;4755799;30;20043;-84
2023/04/08 07:56:11;;;;;;;18.27;16.48;;;9.30;99.90;;;;;;4755501;30;20188;-84
2023/04/08 07:58:36;;;;;;;17.45;15.65;;;9.30;99.90;;;;;;4772449;30;20058;-84
2023/04/08 08:01:02;;;;;;;16.40;14.90;;;9.50;99.90;;;;;;4753384;30;20044;-84
2023/04/08 08:03:28;;;;;;;17.00;15.30;;;9.60;99.90;;;;;;4755341;30;20036;-84
2023/04/08 08:05:53;;;;;;;19.70;17.02;;;9.40;99.90;;;;;;4753997;30;20051;-84
2023/04/08 08:08:19;;;;;;;17.95;16.08;;;9.20;99.90;;;;;;4753647;30;20046;-84
2023/04/08 08:10:44;;;;;;;17.40;15.80;;;9.50;99.90;;;;;;4770396;30;20044;-84
2023/04/08 08:13:13;;;;;;;16.73;14.90;;;9.80;99.90;;;;;;4756581;30;20054;-84
2023/04/08 08:15:39;;;;;;;16.88;15.18;;;10.10;99.90;;;;;;4756028;30;20083;-84
2023/04/08 08:18:05;;;;;;;16.88;15.38;;;10.00;99.90;;;;;;4754328;30;20066;-84
2023/04/08 08:20:31;;;;;;;16.20;14.68;;;9.90;99.90;;;;;;4754925;30;20415;-84
2023/04/08 08:22:56;;;;;;;15.35;13.95;;;9.70;99.90;;;;;;4756892;30;20067;-84
2023/04/08 08:25:22;;;;;;;15.45;13.85;;;9.90;99.90;;;;;;4757984;30;20492;-84
2023/04/08 08:27:48;;;;;;;15.73;14.05;;;10.10;99.90;;;;;;4773332;30;20043;-84
2023/04/08 08:30:13;;;;;;;14.55;13.25;;;10.20;99.90;;;;;;4774795;30;20136;-84
2023/04/08 08:32:39;;;;;;;15.55;14.15;;;10.60;99.90;;;;;;4757476;30;20122;-83
2023/04/08 08:35:05;;;;;;;14.20;12.95;;;10.40;99.90;;;;;;4765341;30;20047;-84
2023/04/08 08:37:30;;;;;;;13.43;12.15;;;10.30;99.90;;;;;;4766885;30;20059;-84
2023/04/08 08:39:56;;;;;;;13.20;11.93;;;10.30;99.90;;;;;;4752349;30;20044;-84
2023/04/08 08:42:23;;;;;;;13.65;12.35;;;10.50;99.90;;;;;;4757316;30;20122;-84
2023/04/08 08:44:49;;;;;;;13.85;12.65;;;10.60;99.90;;;;;;4756963;30;20533;-83
2023/04/08 08:47:18;;;;;;;12.55;11.48;;;10.60;99.90;;;;;;4754282;30;20155;-84
2023/04/08 08:49:44;;;;;;;14.32;11.75;;;10.60;99.90;;;;;;4776120;30;20048;-85
2023/04/08 08:52:10;;;;;;;12.82;11.52;;;10.40;99.90;;;;;;4768601;29;20052;-87
2023/04/08 08:54:36;;;;;;;13.13;11.82;;;10.30;99.90;;;;;;4770448;30;20043;-84
2023/04/08 08:57:02;;;;;;;12.88;11.60;;;10.60;99.90;;;;;;4749560;30;20219;-87
2023/04/08 08:59:28;;;;;;;13.75;12.07;;;10.80;99.90;;;;;;4768019;30;20038;-83
2023/04/08 09:02:27;;;;;;;14.15;12.95;;;10.80;99.90;;;;;;4753064;30;20048;-86
2023/04/08 09:05:13;;;;;;;12.05;10.98;;;11.10;99.90;;;;;;4771963;30;20567;-85
2023/04/08 09:07:48;;;;;;;12.27;11.20;;;11.30;99.90;;;;;;4756326;30;20109;-82
2023/04/08 09:10:13;;;;;;;12.63;11.40;;;11.30;99.90;;;;;;4749065;30;20098;-82
2023/04/08 09:12:55;;;;;;;13.15;11.95;;;11.40;99.90;;;;;;4753587;30;20071;-83
2023/04/08 09:15:29;;;;;;;12.75;11.52;;;11.20;99.90;;;;;;4757716;30;20043;-83
2023/04/08 09:25:28;;;;;;;12.75;11.55;;;11.10;99.90;;;;;;4773483;30;20118;-84
2023/04/08 09:27:54;;;;;;;13.02;11.05;;;10.90;99.90;;;;;;4756603;30;20170;-83
2023/04/08 09:30:25;;;;;;;12.48;11.18;;;11.20;99.90;;;;;;4761113;30;20717;-84
2023/04/08 09:32:56;;;;;;;12.77;11.60;;;11.10;99.90;;;;;;4762285;30;20036;-84
2023/04/08 09:35:22;;;;;;;12.20;11.10;;;11.50;99.90;;;;;;4764379;30;20185;-83
2023/04/08 09:37:49;;;;;;;14.10;12.65;;;11.50;99.90;;;;;;4760377;30;20043;-84
2023/04/08 09:40:15;;;;;;;13.23;11.93;;;11.70;99.90;;;;;;4779290;30;20044;-83
2023/04/08 09:42:45;;;;;;;13.27;12.13;;;12.00;99.90;;;;;;4768914;30;20032;-83
2023/04/08 09:45:12;;;;;;;14.13;12.63;;;12.50;99.90;;;;;;4769031;30;20048;-83
2023/04/08 09:47:51;;;;;;;13.65;12.38;;;12.10;99.90;;;;;;4777323;30;20082;-83
2023/04/08 09:50:22;;;;;;;12.93;11.77;;;12.10;99.90;;;;;;4757858;30;20051;-83
2023/04/08 09:52:53;;;;;;;13.85;12.55;;;12.00;99.90;;;;;;4771144;30;20066;-83
2023/04/08 09:55:22;;;;;;;13.85;12.48;;;11.90;99.90;;;;;;4779128;30;20072;-84
2023/04/08 09:58:12;;;;;;;13.98;12.55;;;11.60;99.90;;;;;;4777445;30;20043;-84
2023/04/08 10:00:45;;;;;;;13.30;12.07;;;11.30;99.90;;;;;;4765195;30;20107;-84
2023/04/08 10:03:47;;;;;;;14.68;13.27;;;11.10;99.90;;;;;;4778953;30;20036;-84
2023/04/08 10:06:14;;;;;;;12.90;11.73;;;11.10;99.90;;;;;;4767391;30;20048;-84
2023/04/08 10:08:40;;;;;;;13.60;12.15;;;11.70;99.90;;;;;;4769262;30;20043;-84
2023/04/08 10:11:06;;;;;;;13.15;11.85;;;12.00;99.90;;;;;;4769703;30;20055;-84
2023/04/08 10:13:32;;;;;;;12.93;11.63;;;11.80;99.90;;;;;;4767629;30;20078;-84
2023/04/08 10:16:20;;;;;;;11.95;10.95;;;12.10;99.90;;;;;;4752759;30;20055;-81
2023/04/08 10:18:46;;;;;;;13.15;11.95;;;11.80;99.90;;;;;;4751088;30;20051;-81
2023/04/08 10:21:34;;;;;;;12.45;11.35;;;11.90;99.90;;;;;;4750162;30;20415;-81
2023/04/08 10:24:05;;;;;;;13.63;12.32;;;11.60;99.90;;;;;;4756719;30;20035;-81
2023/04/08 10:26:42;;;;;;;12.35;11.23;;;11.60;99.90;;;;;;4750662;30;20082;-81
2023/04/08 10:29:17;;;;;;;12.95;11.68;;;11.00;99.90;;;;;;4767340;30;20116;-82
2023/04/08 10:31:46;;;;;;;12.65;11.35;;;11.00;99.90;;;;;;4754595;30;20113;-80
2023/04/08 10:34:20;;;;;;;12.55;11.45;;;11.10;99.90;;;;;;4770504;30;20108;-82
2023/04/08 10:36:47;;;;;;;11.68;10.57;;;12.00;99.90;;;;;;4764090;30;20052;-80
2023/04/08 10:39:14;;;;;;;12.43;11.35;;;11.00;99.90;;;;;;4767000;30;20043;-81
2023/04/08 10:41:49;;;;;;;13.00;11.70;;;10.90;99.90;;;;;;4751391;30;20576;-82
2023/04/08 10:44:16;;;;;;;12.48;11.48;;;11.10;99.90;;;;;;4769611;30;20056;-81
2023/04/08 10:46:45;;;;;;;12.15;11.10;;;11.20;99.90;;;;;;4750922;30;20051;-84
2023/04/08 10:49:11;;;;;;;11.90;10.88;;;11.70;99.90;;;;;;4749519;30;20047;-82
2023/04/08 10:51:38;;;;;;;13.65;10.90;;;11.20;99.90;;;;;;4765120;30;20043;-82
2023/04/08 10:54:08;;;;;;;12.27;11.15;;;11.10;99.90;;;;;;4750959;30;20043;-82
2023/04/08 10:56:52;;;;;;;11.60;10.50;;;10.90;99.90;;;;;;4752964;30;20064;-82
2023/04/08 11:03:33;;;;;;;10.07;9.18;;;11.20;99.90;;;;;;4768485;30;20060;-87
2023/04/08 11:06:03;;;;;;;11.57;10.57;;;10.90;99.90;;;;;;4752124;30;20052;-85
2023/04/08 11:08:29;;;;;;;12.00;10.80;;;10.80;99.90;;;;;;4756635;30;20533;-83
2023/04/08 11:10:55;;;;;;;9.95;9.05;;;10.70;99.90;;;;;;4774256;30;20035;-82
2023/04/08 11:13:22;;;;;;;8.77;7.88;;;10.80;99.90;;;;;;4766749;30;20044;-84
2023/04/08 11:15:49;;;;;;;9.95;9.05;;;10.70;99.90;;;;;;4766192;30;20591;-83
2023/04/08 11:18:15;;;;;;;10.77;9.70;;;10.50;99.90;;;;;;4767337;30;20079;-84
2023/04/08 11:20:43;;;;;;;11.15;10.10;;;10.60;99.90;;;;;;4765575;30;20043;-83
2023/04/08 11:23:16;;;;;;;10.10;9.20;;;10.90;99.90;;;;;;4766544;30;20118;-83
2023/04/08 11:25:43;;;;;;;9.50;8.68;;;10.20;99.90;;;;;;4769242;30;20052;-84
2023/04/08 11:28:09;;;;;;;9.90;8.95;;;10.20;99.90;;;;;;4753467;30;20063;-84
2023/04/08 11:30:35;;;;;;;9.80;8.90;;;10.30;99.90;;;;;;4767382;30;20067;-83
2023/04/08 11:33:00;;;;;;;8.57;7.78;;;10.30;99.90;;;;;;4752135;30;20047;-83
2023/04/08 11:35:32;;;;;;;8.02;7.32;;;10.30;99.90;;;;;;4752155;30;20092;-83
2023/04/08 11:37:58;;;;;;;9.15;8.35;;;10.10;99.90;;;;;;4766199;30;20495;-83
2023/04/08 11:40:25;;;;;;;8.55;7.75;;;9.90;99.90;;;;;;4768612;30;20181;-83
2023/04/08 11:42:51;;;;;;;12.48;8.38;;;9.80;99.90;;;;;;4751614;30;20484;-83
2023/04/08 11:45:18;;;;;;;8.48;7.72;;;9.90;99.90;;;;;;4753896;30;20047;-81
2023/04/08 11:47:45;;;;;;;9.05;8.15;;;9.90;99.90;;;;;;4770532;30;20052;-80
2023/04/08 11:50:11;;;;;;;7.90;7.10;;;10.00;99.90;;;;;;4773096;30;20551;-81
2023/04/08 11:52:40;;;;;;;9.48;8.45;;;9.90;99.90;;;;;;4772922;30;20093;-81
2023/04/08 11:55:06;;;;;;;8.52;7.70;;;10.00;99.90;;;;;;4768842;30;20051;-81
2023/04/08 11:57:31;;;;;;;8.15;7.35;;;10.10;99.90;;;;;;4750886;30;20435;-81
2023/04/08 11:59:57;;;;;;;7.82;7.03;;;10.30;99.90;;;;;;4755119;30;20438;-81
2023/04/08 12:02:23;;;;;;;7.40;6.70;;;10.50;99.90;;;;;;4752299;30;20051;-81
2023/04/08 12:04:48;;;;;;;8.00;7.03;;;10.40;99.90;;;;;;4751128;30;20462;-81
2023/04/08 12:07:14;;;;;;;7.20;6.43;;;10.50;99.90;;;;;;4730259;30;20063;-81
2023/04/08 12:09:39;;;;;;;7.65;6.85;;;10.40;99.90;;;;;;4748796;30;20063;-81
2023/04/08 12:12:05;;;;;;;7.53;6.78;;;10.50;99.90;;;;;;4745000;30;20050;-82
2023/04/08 12:14:42;;;;;;;7.88;7.18;;;10.40;99.90;;;;;;4746615;30;20495;-83
2023/04/08 12:17:08;;;;;;;8.32;7.53;;;10.50;99.90;;;;;;4750589;30;20043;-82
2023/04/08 12:19:34;;;;;;;9.18;7.65;;;10.50;99.90;;;;;;4751232;30;20047;-81
2023/04/08 12:21:59;;;;;;;11.77;8.45;;;10.40;99.90;;;;;;4767860;30;20043;-82
2023/04/08 12:28:37;;;;;;;8.68;7.80;;;10.50;99.90;;;;;;4770680;30;20066;-81
2023/04/08 12:31:08;;;;;;;9.45;8.52;;;10.30;99.90;;;;;;4765583;30;20051;-82
2023/04/08 12:33:34;;;;;;;10.48;9.38;;;10.20;99.90;;;;;;4737977;30;20107;-82
2023/04/08 12:36:00;;;;;;;11.73;10.35;;;10.10;99.90;;;;;;4764956;30;20123;-81
2023/04/08 12:38:26;;;;;;;10.35;9.25;;;10.00;99.90;;;;;;4733867;30;20092;-81
2023/04/08 12:40:52;;;;;;;11.25;10.10;;;10.00;99.90;;;;;;4747512;30;20040;-81
2023/04/08 12:43:17;;;;;;;11.32;10.10;;;9.90;99.90;;;;;;4764202;30;20103;-81
2023/04/08 12:45:43;;;;;;;14.90;12.35;;;9.80;99.90;;;;;;4768630;30;20119;-81
2023/04/08 12:48:09;;;;;;;15.50;12.23;;;9.90;99.90;;;;;;4750852;30;20101;-83
2023/04/08 12:50:35;;;;;;;16.02;13.98;;;9.90;99.90;;;;;;4738760;30;20106;-80
2023/04/08 12:53:01;;;;;;;15.68;13.23;;;9.90;99.90;;;;;;4757640;30;20561;-81
2023/04/08 12:55:26;;;;;;;16.63;13.25;;;9.90;99.90;;;;;;4770556;30;20051;-80
2023/04/08 12:57:52;;;;;;;14.63;12.13;;;9.90;99.90;;;;;;4751594;30;20405;-81
2023/04/08 13:00:18;;;;;;;15.38;13.40;;;10.00;99.90;;;;;;4749863;30;20091;-82
2023/04/08 13:02:45;;;;;;;16.63;12.77;;;10.00;99.90;;;;;;4766533;30;20130;-82
2023/04/08 13:05:11;;;;;;;19.83;14.30;;;9.90;99.90;;;;;;4765555;30;20048;-82
2023/04/08 13:07:36;;;;;;;20.80;16.52;;;9.80;99.90;;;;;;4739167;30;20115;-81
2023/04/08 13:10:03;;;;;;;21.00;16.25;;;9.70;99.90;;;;;;4752109;30;20047;-82
2023/04/08 13:12:29;;;;;;;18.60;16.33;;;9.80;99.90;;;;;;4755643;30;20079;-82
2023/04/08 13:14:55;;;;;;;23.98;18.30;;;9.70;99.90;;;;;;4754187;30;20086;-82
2023/04/08 13:17:20;;;;;;;20.33;17.63;;;9.70;99.90;;;;;;4772805;30;20040;-82
2023/04/08 13:19:48;;;;;;;20.88;17.17;;;9.60;99.90;;;;;;4759213;30;20062;-81
2023/04/08 13:22:14;;;;;;;24.33;18.25;;;9.70;99.90;;;;;;4754462;30;20079;-81
2023/04/08 13:24:40;;;;;;;18.10;16.10;;;9.70;99.90;;;;;;4756321;30;20527;-81
2023/04/08 13:27:09;;;;;;;19.05;15.90;;;9.70;99.90;;;;;;4753270;30;20052;-84
2023/04/08 13:30:20;;;;;;;19.23;16.77;;;9.70;99.90;;;;;;4754855;30;20051;-84
2023/04/08 13:37:03;;;;;;;27.73;18.27;;;9.80;99.90;;;;;;4698009;30;20063;-84
2023/04/08 13:48:13;;;;;;;21.58;18.52;;;9.80;99.90;;;;;;4714566;30;20133;-83
2023/04/08 13:51:55;;;;;;;26.38;19.77;;;9.70;99.90;;;;;;4719579;30;20101;-84
2023/04/08 13:54:42;;;;;;;21.90;17.80;;;9.70;99.90;;;;;;4724807;30;20075;-83
2023/04/08 16:22:00;;;;;;;28.38;25.38;;;10.40;99.90;;;;;;4769295;30;20078;-82
2023/04/08 17:42:31;;;;;;;45.17;40.15;;;9.90;99.90;;;;;;4767576;30;20051;-84
2023/04/08 17:45:16;;;;;;;45.50;40.45;;;9.90;99.90;;;;;;4755622;30;20067;-84
2023/04/08 17:47:42;;;;;;;46.03;41.22;;;9.80;99.90;;;;;;4748845;30;20067;-84
2023/04/08 17:50:08;;;;;;;48.70;43.65;;;10.30;99.90;;;;;;4751680;30;20392;-84
2023/04/08 17:52:34;;;;;;;52.40;46.03;;;9.90;99.90;;;;;;4751627;30;20191;-87
2023/04/08 17:54:59;;;;;;;51.85;46.53;;;9.80;99.90;;;;;;4767080;30;20096;-86
2023/04/08 17:57:25;;;;;;;57.70;48.67;;;9.80;99.90;;;;;;4768508;30;20113;-87
2023/04/08 17:59:51;;;;;;;53.70;47.97;;;9.80;99.90;;;;;;4759947;30;20050;-87